createdAt,value
2018-08-13T00:01:58.446Z,14.64
2018-08-13T00:04:26.855Z,14.63
2018-08-13T00:06:55.261Z,14.60
2018-08-13T00:09:29.117Z,14.58
2018-08-13T00:11:57.777Z,14.57
2018-08-13T00:14:26.120Z,14.56
2018-08-13T00:16:54.465Z,14.56
2018-08-13T00:19:22.842Z,14.52
2018-08-13T00:21:52.265Z,14.48
2018-08-13T00:24:21.381Z,14.47
2018-08-13T00:26:50.637Z,14.43
2018-08-13T00:29:20.429Z,14.39
2018-08-13T00:31:49.899Z,14.36
2018-08-13T00:34:19.027Z,14.30
2018-08-13T00:36:47.362Z,14.28
2018-08-13T00:39:15.743Z,14.29
2018-08-13T00:41:44.173Z,14.28
2018-08-13T00:44:12.534Z,14.32
2018-08-13T00:46:40.880Z,14.33
2018-08-13T00:49:10.038Z,14.33
2018-08-13T00:51:38.992Z,14.34
2018-08-13T00:54:08.039Z,14.34
2018-08-13T00:56:38.077Z,14.34
2018-08-13T00:59:07.784Z,14.34
2018-08-13T01:01:36.692Z,14.36
2018-08-13T01:04:05.033Z,14.35
2018-08-13T01:06:35.430Z,14.34
2018-08-13T01:09:06.484Z,14.34
2018-08-13T01:11:34.816Z,14.33
2018-08-13T01:14:03.456Z,14.31
2018-08-13T01:16:31.917Z,14.30
2018-08-13T01:19:00.309Z,14.27
2018-08-13T01:21:28.745Z,14.25
2018-08-13T01:23:57.077Z,14.21
2018-08-13T01:26:25.413Z,14.20
2018-08-13T01:28:53.969Z,14.19
2018-08-13T01:31:22.301Z,14.21
2018-08-13T01:33:51.345Z,14.20
2018-08-13T01:36:20.806Z,14.14
2018-08-13T01:38:49.129Z,14.11
2018-08-13T01:41:17.477Z,14.05
2018-08-13T01:43:45.813Z,14.04
2018-08-13T01:46:14.134Z,14.00
2018-08-13T01:48:42.460Z,13.97
2018-08-13T01:51:10.776Z,13.93
2018-08-13T01:53:39.289Z,13.88
2018-08-13T01:56:09.072Z,13.83
2018-08-13T01:58:37.789Z,13.79
2018-08-13T02:01:07.775Z,13.75
2018-08-13T02:03:36.744Z,13.69
2018-08-13T02:06:05.152Z,13.64
2018-08-13T02:08:33.568Z,13.61
2018-08-13T02:11:01.924Z,13.58
2018-08-13T02:13:30.253Z,13.50
2018-08-13T02:15:59.452Z,13.46
2018-08-13T02:18:27.814Z,13.42
2018-08-13T02:20:56.124Z,13.35
2018-08-13T02:23:24.501Z,13.31
2018-08-13T02:25:53.802Z,13.25
2018-08-13T02:28:23.455Z,13.21
2018-08-13T02:30:52.884Z,13.17
2018-08-13T02:33:22.198Z,13.15
2018-08-13T02:35:50.561Z,13.10
2018-08-13T02:38:18.961Z,13.08
2018-08-13T02:40:48.224Z,13.05
2018-08-13T02:43:16.581Z,13.03
2018-08-13T02:45:45.863Z,12.99
2018-08-13T02:48:14.249Z,12.97
2018-08-13T02:50:42.693Z,12.93
2018-08-13T02:53:11.896Z,12.90
2018-08-13T02:55:41.252Z,12.86
2018-08-13T02:58:09.600Z,12.86
2018-08-13T03:00:39.196Z,12.82
2018-08-13T03:03:09.083Z,12.76
2018-08-13T03:05:39.580Z,12.76
2018-08-13T03:08:09.917Z,12.70
2018-08-13T03:10:40.053Z,12.68
2018-08-13T03:13:10.820Z,12.65
2018-08-13T03:15:40.083Z,12.62
2018-08-13T03:18:09.568Z,12.58
2018-08-13T03:20:39.610Z,12.56
2018-08-13T03:23:08.630Z,12.51
2018-08-13T03:25:38.869Z,12.47
2018-08-13T03:28:08.949Z,12.46
2018-08-13T03:30:37.943Z,12.42
2018-08-13T03:33:07.460Z,12.38
2018-08-13T03:35:37.801Z,12.35
2018-08-13T03:38:07.940Z,12.33
2018-08-13T03:40:38.002Z,12.32
2018-08-13T03:43:06.824Z,12.29
2018-08-13T03:45:35.156Z,12.26
2018-08-13T03:48:03.653Z,12.25
2018-08-13T03:50:32.862Z,12.23
2018-08-13T03:53:02.120Z,12.22
2018-08-13T03:55:31.595Z,12.20
2018-08-13T03:58:00.972Z,12.22
2018-08-13T04:00:30.509Z,12.21
2018-08-13T04:02:59.781Z,12.22
2018-08-13T04:05:29.020Z,12.23
2018-08-13T04:07:57.825Z,12.22
2018-08-13T04:10:26.158Z,12.25
2018-08-13T04:12:55.551Z,12.29
2018-08-13T04:15:24.688Z,12.28
2018-08-13T04:17:53.124Z,12.29
2018-08-13T04:20:23.868Z,12.30
2018-08-13T04:22:53.072Z,12.34
2018-08-13T04:25:23.809Z,12.35
2018-08-13T04:27:53.179Z,12.37
2018-08-13T04:30:23.821Z,12.38
2018-08-13T04:32:53.206Z,12.41
2018-08-13T04:35:22.554Z,12.44
2018-08-13T04:37:51.636Z,12.47
2018-08-13T04:40:20.748Z,12.50
2018-08-13T04:42:49.128Z,12.54
2018-08-13T04:45:17.477Z,12.57
2018-08-13T04:47:52.034Z,12.61
2018-08-13T04:50:20.641Z,12.67
2018-08-13T04:52:49.120Z,12.73
2018-08-13T04:55:17.977Z,12.80
2018-08-13T04:57:47.497Z,12.89
2018-08-13T05:00:15.838Z,12.97
2018-08-13T05:02:44.156Z,13.06
2018-08-13T05:05:12.854Z,13.12
2018-08-13T05:07:41.308Z,13.22
2018-08-13T05:10:10.820Z,13.33
2018-08-13T05:12:40.920Z,13.45
2018-08-13T05:15:10.865Z,13.56
2018-08-13T05:17:39.200Z,13.63
2018-08-13T05:20:09.937Z,13.76
2018-08-13T05:22:39.125Z,13.84
2018-08-13T05:25:10.809Z,13.95
2018-08-13T05:27:41.142Z,14.04
2018-08-13T05:30:11.757Z,14.14
2018-08-13T05:32:40.112Z,14.26
2018-08-13T05:35:10.799Z,14.36
2018-08-13T05:37:40.139Z,14.45
2018-08-13T05:40:10.550Z,14.55
2018-08-13T05:42:40.226Z,14.63
2018-08-13T05:45:10.694Z,14.69
2018-08-13T05:47:40.247Z,14.73
2018-08-13T05:50:11.006Z,14.84
2018-08-13T05:52:40.857Z,14.91
2018-08-13T05:55:10.149Z,15.03
2018-08-13T05:57:39.685Z,15.19
2018-08-13T06:00:11.057Z,15.33
2018-08-13T06:02:42.467Z,15.47
2018-08-13T06:05:12.886Z,15.60
2018-08-13T06:07:42.513Z,15.93
2018-08-13T06:10:12.658Z,16.23
2018-08-13T06:12:42.303Z,16.34
2018-08-13T06:15:13.580Z,16.64
2018-08-13T06:17:42.945Z,16.79
2018-08-13T06:20:12.377Z,16.91
2018-08-13T06:22:42.236Z,17.24
2018-08-13T06:25:12.407Z,17.31
2018-08-13T06:27:40.848Z,17.42
2018-08-13T06:30:12.275Z,17.51
2018-08-13T06:32:41.343Z,17.76
2018-08-13T06:35:10.206Z,17.83
2018-08-13T06:37:39.596Z,18.04
2018-08-13T06:40:10.077Z,18.11
2018-08-13T06:42:39.648Z,18.37
2018-08-13T06:45:09.408Z,18.49
2018-08-13T06:47:38.788Z,18.65
2018-08-13T06:50:09.645Z,18.80
2018-08-13T06:52:38.008Z,18.88
2018-08-13T06:55:07.007Z,18.97
2018-08-13T06:57:35.941Z,19.05
2018-08-13T07:00:06.945Z,19.22
2018-08-13T07:02:35.253Z,19.43
2018-08-13T07:05:03.926Z,19.63
2018-08-13T07:07:32.285Z,19.88
2018-08-13T07:10:00.650Z,19.93
2018-08-13T07:12:28.999Z,19.99
2018-08-13T07:14:57.415Z,20.10
2018-08-13T07:17:25.886Z,20.26
2018-08-13T07:19:54.344Z,20.32
2018-08-13T07:22:22.756Z,20.38
2018-08-13T07:24:51.931Z,20.47
2018-08-13T07:27:21.540Z,20.48
2018-08-13T07:29:50.498Z,20.64
2018-08-13T07:32:18.885Z,20.64
2018-08-13T07:34:48.201Z,20.66
2018-08-13T07:37:17.501Z,20.78
2018-08-13T07:39:45.939Z,20.90
2018-08-13T07:42:14.270Z,21.07
2018-08-13T07:44:43.610Z,21.12
2018-08-13T07:47:11.936Z,21.23
2018-08-13T07:49:40.309Z,21.36
2018-08-13T07:52:10.201Z,21.64
2018-08-13T07:54:39.541Z,21.62
2018-08-13T07:57:09.144Z,21.87
2018-08-13T07:59:37.556Z,21.96
2018-08-13T08:02:07.257Z,22.24
2018-08-13T08:04:35.793Z,22.48
2018-08-13T08:07:05.073Z,22.40
2018-08-13T08:09:33.436Z,22.74
2018-08-13T08:12:01.760Z,22.77
2018-08-13T08:14:30.129Z,22.77
2018-08-13T08:16:58.573Z,23.00
2018-08-13T08:19:27.049Z,23.03
2018-08-13T08:21:55.499Z,23.33
2018-08-13T08:24:23.849Z,23.41
2018-08-13T08:26:52.929Z,23.50
2018-08-13T08:29:23.799Z,23.70
2018-08-13T08:31:53.237Z,23.81
2018-08-13T08:34:24.071Z,23.81
2018-08-13T08:36:53.780Z,23.91
2018-08-13T08:39:23.433Z,24.18
2018-08-13T08:41:53.417Z,24.22
2018-08-13T08:44:22.308Z,24.35
2018-08-13T08:46:50.682Z,24.66
2018-08-13T08:49:19.024Z,24.70
2018-08-13T08:51:48.257Z,24.80
2018-08-13T08:54:16.590Z,25.09
2018-08-13T08:56:45.870Z,25.30
2018-08-13T08:59:15.011Z,25.52
2018-08-13T09:01:44.437Z,25.79
2018-08-13T09:04:13.653Z,26.05
2018-08-13T09:06:43.002Z,26.42
2018-08-13T09:09:13.158Z,26.61
2018-08-13T09:11:42.096Z,26.74
2018-08-13T09:14:10.488Z,26.93
2018-08-13T09:16:42.059Z,27.13
2018-08-13T09:19:21.898Z,27.22
2018-08-13T09:21:52.610Z,27.37
2018-08-13T09:24:32.403Z,27.41
2018-08-13T09:27:12.146Z,27.56
2018-08-13T09:29:51.816Z,27.57
2018-08-13T09:32:33.845Z,27.53
2018-08-13T09:35:38.695Z,27.66
2018-08-13T09:38:08.176Z,27.56
2018-08-13T09:40:36.561Z,27.63
2018-08-13T09:43:04.898Z,27.77
2018-08-13T09:45:33.389Z,27.93
2018-08-13T09:48:01.903Z,28.02
2018-08-13T09:50:30.237Z,28.11
2018-08-13T09:52:58.580Z,28.27
2018-08-13T09:55:27.971Z,28.42
2018-08-13T09:57:57.212Z,28.55
2018-08-13T10:00:30.836Z,28.65
2018-08-13T10:02:59.164Z,28.80
2018-08-13T10:05:27.504Z,28.82
2018-08-13T10:07:55.836Z,28.87
2018-08-13T10:10:24.177Z,28.79
2018-08-13T10:12:53.660Z,28.99
2018-08-13T10:15:22.801Z,29.19
2018-08-13T10:17:52.675Z,29.23
2018-08-13T10:20:21.826Z,29.25
2018-08-13T10:22:51.472Z,29.40
2018-08-13T10:25:21.009Z,29.50
2018-08-13T10:27:50.402Z,29.43
2018-08-13T10:30:18.753Z,29.40
2018-08-13T10:32:47.094Z,29.57
2018-08-13T10:35:15.452Z,29.63
2018-08-13T10:37:43.813Z,29.76
2018-08-13T10:40:15.232Z,29.94
2018-08-13T10:42:43.633Z,30.10
2018-08-13T10:45:11.989Z,30.15
2018-08-13T10:47:40.411Z,30.27
2018-08-13T10:50:11.417Z,30.28
2018-08-13T10:52:39.945Z,30.25
2018-08-13T10:55:08.948Z,30.16
2018-08-13T10:57:38.043Z,30.23
2018-08-13T11:00:09.643Z,30.34
2018-08-13T11:02:40.166Z,30.27
2018-08-13T11:05:10.858Z,30.51
2018-08-13T11:07:40.536Z,30.64
2018-08-13T11:10:11.343Z,30.65
2018-08-13T11:12:39.789Z,30.72
2018-08-13T11:15:24.231Z,30.91
2018-08-13T11:17:54.110Z,31.19
2018-08-13T11:20:24.052Z,31.42
2018-08-13T11:22:54.118Z,31.52
2018-08-13T11:25:24.550Z,31.53
2018-08-13T11:27:52.898Z,31.45
2018-08-13T11:30:22.378Z,31.52
2018-08-13T11:32:50.768Z,31.57
2018-08-13T11:35:19.096Z,31.74
2018-08-13T11:37:48.396Z,31.74
2018-08-13T11:40:18.590Z,31.85
2018-08-13T11:42:46.966Z,31.85
2018-08-13T11:45:15.317Z,31.84
2018-08-13T11:47:43.651Z,31.73
2018-08-13T11:50:15.120Z,31.69
2018-08-13T11:52:44.649Z,31.54
2018-08-13T11:55:13.025Z,31.58
2018-08-13T11:57:44.381Z,31.69
2018-08-13T12:00:13.346Z,31.70
2018-08-13T12:02:41.722Z,31.74
2018-08-13T12:05:12.818Z,31.83
2018-08-13T12:07:41.328Z,31.97
2018-08-13T12:10:11.414Z,32.02
2018-08-13T12:12:40.697Z,32.12
2018-08-13T12:15:10.945Z,32.02
2018-08-13T12:17:41.095Z,31.96
2018-08-13T12:20:12.353Z,32.05
2018-08-13T12:22:41.980Z,32.09
2018-08-13T12:25:10.770Z,32.19
2018-08-13T12:27:40.325Z,32.36
2018-08-13T12:30:10.557Z,32.42
2018-08-13T12:32:39.931Z,32.24
2018-08-13T12:35:09.048Z,32.11
2018-08-13T12:37:38.644Z,32.16
2018-08-13T12:40:10.262Z,31.99
2018-08-13T12:42:40.222Z,32.02
2018-08-13T12:45:15.855Z,32.56
2018-08-13T12:47:45.336Z,32.45
2018-08-13T12:50:14.841Z,32.58
2018-08-13T12:52:45.277Z,32.43
2018-08-13T12:55:14.829Z,32.30
2018-08-13T12:57:44.218Z,32.03
2018-08-13T13:00:15.638Z,32.00
2018-08-13T13:02:45.060Z,31.99
2018-08-13T13:05:15.581Z,32.23
2018-08-13T13:07:44.868Z,32.17
2018-08-13T13:10:14.700Z,32.17
2018-08-13T13:12:44.256Z,32.24
2018-08-13T13:15:14.888Z,32.31
2018-08-13T13:17:43.400Z,32.33
2018-08-13T13:20:17.129Z,32.61
2018-08-13T13:22:46.810Z,32.79
2018-08-13T13:25:16.532Z,32.91
2018-08-13T13:27:45.914Z,33.00
2018-08-13T13:30:16.232Z,33.02
2018-08-13T13:32:44.992Z,32.82
2018-08-13T13:35:15.233Z,32.90
2018-08-13T13:37:44.481Z,32.69
2018-08-13T13:40:14.926Z,32.47
2018-08-13T13:42:44.429Z,32.43
2018-08-13T13:45:14.753Z,32.62
2018-08-13T13:47:43.104Z,32.52
2018-08-13T13:50:13.781Z,32.44
2018-08-13T13:52:42.469Z,32.22
2018-08-13T13:55:10.983Z,32.18
2018-08-13T13:57:40.487Z,32.13
2018-08-13T14:00:15.644Z,32.00
2018-08-13T14:02:44.285Z,31.80
2018-08-13T14:05:12.698Z,31.75
2018-08-13T14:07:41.060Z,31.93
2018-08-13T14:10:15.136Z,31.99
2018-08-13T14:12:44.186Z,32.01
2018-08-13T14:15:14.020Z,32.15
2018-08-13T14:17:43.013Z,32.36
2018-08-13T14:20:11.736Z,32.40
2018-08-13T14:22:40.457Z,32.30
2018-08-13T14:25:11.993Z,32.08
2018-08-13T14:27:41.593Z,31.95
2018-08-13T14:30:17.303Z,31.64
2018-08-13T14:32:45.961Z,31.35
2018-08-13T14:35:14.400Z,31.17
2018-08-13T14:37:42.758Z,31.24
2018-08-13T14:40:12.386Z,31.26
2018-08-13T14:42:41.009Z,31.24
2018-08-13T14:45:11.393Z,31.04
2018-08-13T14:47:40.601Z,30.92
2018-08-13T14:50:11.063Z,30.87
2018-08-13T14:52:41.404Z,30.88
2018-08-13T14:55:11.697Z,30.83
2018-08-13T14:57:40.185Z,30.85
2018-08-13T15:00:14.156Z,30.81
2018-08-13T15:02:43.719Z,30.77
2018-08-13T15:05:12.245Z,30.75
2018-08-13T15:07:40.598Z,30.58
2018-08-13T15:10:13.085Z,30.40
2018-08-13T15:12:43.390Z,30.29
2018-08-13T15:15:13.334Z,30.22
2018-08-13T15:17:42.748Z,30.04
2018-08-13T15:20:14.121Z,30.04
2018-08-13T15:22:43.497Z,29.85
2018-08-13T15:25:13.013Z,29.55
2018-08-13T15:27:41.515Z,29.23
2018-08-13T15:30:14.716Z,28.89
2018-08-13T15:32:45.000Z,28.67
2018-08-13T15:35:13.424Z,28.58
2018-08-13T15:37:42.314Z,28.53
2018-08-13T15:40:11.634Z,28.42
2018-08-13T15:42:40.198Z,28.43
2018-08-13T15:45:12.262Z,28.18
2018-08-13T15:47:40.853Z,27.92
2018-08-13T15:50:11.080Z,27.81
2018-08-13T15:52:40.738Z,27.74
2018-08-13T15:55:10.356Z,27.54
2018-08-13T15:57:40.104Z,27.50
2018-08-13T16:00:09.943Z,27.39
2018-08-13T16:02:38.442Z,27.30
2018-08-13T16:05:09.069Z,27.10
2018-08-13T16:07:38.245Z,27.05
2018-08-13T16:10:09.596Z,26.75
2018-08-13T16:12:38.377Z,26.70
2018-08-13T16:15:08.188Z,26.43
2018-08-13T16:17:38.373Z,26.29
2018-08-13T16:20:10.513Z,26.18
2018-08-13T16:22:40.881Z,26.03
2018-08-13T16:25:10.372Z,25.86
2018-08-13T16:27:39.708Z,25.75
2018-08-13T16:30:16.110Z,25.52
2018-08-13T16:32:44.815Z,25.46
2018-08-13T16:35:14.221Z,25.34
2018-08-13T16:37:43.885Z,25.31
2018-08-13T16:40:12.269Z,25.05
2018-08-13T16:42:41.049Z,24.89
2018-08-13T16:45:11.625Z,24.49
2018-08-13T16:47:40.831Z,23.92
2018-08-13T16:50:15.026Z,23.25
2018-08-13T16:52:43.564Z,22.94
2018-08-13T16:55:12.670Z,22.63
2018-08-13T16:57:41.817Z,22.36
2018-08-13T17:00:12.526Z,22.06
2018-08-13T17:02:41.277Z,22.00
2018-08-13T17:05:11.501Z,21.71
2018-08-13T17:07:42.171Z,21.66
2018-08-13T17:10:14.768Z,21.55
2018-08-13T17:12:43.229Z,21.47
2018-08-13T17:15:12.270Z,21.34
2018-08-13T17:17:40.649Z,21.39
2018-08-13T17:20:12.522Z,21.32
2018-08-13T17:22:41.741Z,21.34
2018-08-13T17:25:12.257Z,21.44
2018-08-13T17:27:41.461Z,21.39
2018-08-13T17:30:14.041Z,21.52
2018-08-13T17:32:42.630Z,21.61
2018-08-13T17:35:12.083Z,21.64
2018-08-13T17:37:41.382Z,21.66
2018-08-13T17:40:12.446Z,21.64
2018-08-13T17:42:40.828Z,21.66
2018-08-13T17:45:10.572Z,21.67
2018-08-13T17:47:39.993Z,21.54
2018-08-13T17:50:11.285Z,21.45
2018-08-13T17:52:40.846Z,21.52
2018-08-13T17:55:10.617Z,21.51
2018-08-13T17:57:40.296Z,21.51
2018-08-13T18:00:12.497Z,21.33
2018-08-13T18:02:41.097Z,21.20
2018-08-13T18:05:12.116Z,21.17
2018-08-13T18:07:40.540Z,21.11
2018-08-13T18:10:14.030Z,20.98
2018-08-13T18:12:43.421Z,20.88
2018-08-13T18:15:14.203Z,20.76
2018-08-13T18:17:42.813Z,20.72
2018-08-13T18:20:11.669Z,20.65
2018-08-13T18:22:40.834Z,20.62
2018-08-13T18:25:11.801Z,20.55
2018-08-13T18:27:42.647Z,20.56
2018-08-13T18:30:20.725Z,20.57
2018-08-13T18:32:49.133Z,20.58
2018-08-13T18:35:17.681Z,20.60
2018-08-13T18:37:46.152Z,20.64
2018-08-13T18:40:17.365Z,20.65
2018-08-13T18:42:45.713Z,20.67
2018-08-13T18:45:14.108Z,20.67
2018-08-13T18:47:42.442Z,20.69
2018-08-13T18:50:12.944Z,20.69
2018-08-13T18:52:41.573Z,20.66
2018-08-13T18:55:13.318Z,20.66
2018-08-13T18:57:41.680Z,20.69
2018-08-13T19:00:14.789Z,20.75
2018-08-13T19:02:43.228Z,20.78
2018-08-13T19:05:13.317Z,20.82
2018-08-13T19:07:41.957Z,20.83
2018-08-13T19:10:12.176Z,20.87
2018-08-13T19:12:40.709Z,20.95
2018-08-13T19:15:11.713Z,20.85
2018-08-13T19:17:40.513Z,20.80
2018-08-13T19:20:11.480Z,20.70
2018-08-13T19:22:40.293Z,20.72
2018-08-13T19:25:11.508Z,20.61
2018-08-13T19:27:40.819Z,20.50
2018-08-13T19:30:11.423Z,20.44
2018-08-13T19:32:39.786Z,20.50
2018-08-13T19:35:10.050Z,20.48
2018-08-13T19:37:39.347Z,20.53
2018-08-13T19:40:10.064Z,20.48
2018-08-13T19:42:39.947Z,20.44
2018-08-13T19:45:09.698Z,20.45
2018-08-13T19:47:38.581Z,20.55
2018-08-13T19:50:09.559Z,20.58
2018-08-13T19:52:39.440Z,20.61
2018-08-13T19:55:09.401Z,20.56
2018-08-13T19:57:38.521Z,20.51
2018-08-13T20:00:14.258Z,20.47
2018-08-13T20:02:42.618Z,20.48
2018-08-13T20:05:12.172Z,20.48
2018-08-13T20:07:40.954Z,20.45
2018-08-13T20:10:12.636Z,20.45
2018-08-13T20:12:41.044Z,20.45
2018-08-13T20:15:10.748Z,20.43
2018-08-13T20:17:40.228Z,20.42
2018-08-13T20:20:11.813Z,20.41
2018-08-13T20:22:40.197Z,20.36
2018-08-13T20:25:11.150Z,20.32
2018-08-13T20:27:40.841Z,20.22
2018-08-13T20:30:12.239Z,20.14
2018-08-13T20:32:40.601Z,20.08
2018-08-13T20:35:10.039Z,20.14
2018-08-13T20:37:39.425Z,20.06
2018-08-13T20:40:09.873Z,20.04
2018-08-13T20:42:39.318Z,20.02
2018-08-13T20:45:11.031Z,19.97
2018-08-13T20:47:40.153Z,19.94
2018-08-13T20:50:11.299Z,19.88
2018-08-13T20:52:41.202Z,19.91
2018-08-13T20:55:13.516Z,19.89
2018-08-13T20:57:42.394Z,19.83
2018-08-13T21:00:12.281Z,19.75
2018-08-13T21:02:42.009Z,19.68
2018-08-13T21:05:10.876Z,19.64
2018-08-13T21:07:39.230Z,19.64
2018-08-13T21:10:10.101Z,19.60
2018-08-13T21:12:39.356Z,19.61
2018-08-13T21:15:10.001Z,19.59
2018-08-13T21:17:39.031Z,19.58
2018-08-13T21:20:08.518Z,19.57
2018-08-13T21:22:38.309Z,19.55
2018-08-13T21:25:10.983Z,19.54
2018-08-13T21:27:40.275Z,19.59
2018-08-13T21:30:10.025Z,19.62
2018-08-13T21:32:39.272Z,19.63
2018-08-13T21:35:08.661Z,19.64
2018-08-13T21:37:37.057Z,19.64
2018-08-13T21:40:07.631Z,19.61
2018-08-13T21:42:35.981Z,19.60
2018-08-13T21:45:04.356Z,19.56
2018-08-13T21:47:32.742Z,19.55
2018-08-13T21:50:02.031Z,19.53
2018-08-13T21:52:30.461Z,19.56
2018-08-13T21:54:58.800Z,19.57
2018-08-13T21:57:27.142Z,19.59
2018-08-13T21:59:56.002Z,19.60
2018-08-13T22:02:24.366Z,19.60
2018-08-13T22:04:52.693Z,19.60
2018-08-13T22:07:21.525Z,19.62
2018-08-13T22:09:51.404Z,19.63
2018-08-13T22:12:21.764Z,19.64
2018-08-13T22:14:50.689Z,19.65
2018-08-13T22:17:19.065Z,19.64
2018-08-13T22:19:47.385Z,19.63
2018-08-13T22:22:16.771Z,19.60
2018-08-13T22:25:10.169Z,19.58
2018-08-13T22:27:40.601Z,19.58
2018-08-13T22:30:10.523Z,19.59
2018-08-13T22:32:40.353Z,19.53
2018-08-13T22:35:10.165Z,19.50
2018-08-13T22:37:40.180Z,19.47
2018-08-13T22:40:12.485Z,19.41
2018-08-13T22:42:41.651Z,19.34
2018-08-13T22:45:10.885Z,19.28
2018-08-13T22:47:41.382Z,19.22
2018-08-13T22:50:11.173Z,19.21
2018-08-13T22:52:40.165Z,19.17
2018-08-13T22:55:12.245Z,19.11
2018-08-13T22:57:40.585Z,19.08
2018-08-13T23:00:12.514Z,19.02
2018-08-13T23:02:41.097Z,18.96
2018-08-13T23:05:11.513Z,18.93
2018-08-13T23:07:41.378Z,18.96
2018-08-13T23:10:11.592Z,18.93
2018-08-13T23:12:40.628Z,18.93
2018-08-13T23:15:12.357Z,18.90
2018-08-13T23:17:41.072Z,18.86
2018-08-13T23:20:14.688Z,18.83
2018-08-13T23:23:03.856Z,18.78
2018-08-13T23:25:34.749Z,18.76
2018-08-13T23:28:04.527Z,18.76
2018-08-13T23:30:34.017Z,18.71
2018-08-13T23:33:02.582Z,18.69
2018-08-13T23:35:31.718Z,18.65
2018-08-13T23:38:00.074Z,18.60
2018-08-13T23:40:28.594Z,18.61
2018-08-13T23:42:56.972Z,18.63
2018-08-13T23:45:27.888Z,18.58
2018-08-13T23:47:57.330Z,18.54
2018-08-13T23:50:27.209Z,18.50
2018-08-13T23:52:57.865Z,18.44
2018-08-13T23:55:31.768Z,18.42
2018-08-13T23:58:01.360Z,18.44
